sensor_id;sensor_type;location;lat;lon;timestamp;P1;durP1;ratioP1;P2;durP2;ratioP2
40252;SDS011;25972;51.854;4.534;2023-03-01T00:02:04;12.20;;;5.93;;
40252;SDS011;25972;51.854;4.534;2023-03-01T00:04:30;15.37;;;7.70;;
40252;SDS011;25972;51.854;4.534;2023-03-01T00:06:56;12.03;;;6.57;;
40252;SDS011;25972;51.854;4.534;2023-03-01T00:09:22;14.43;;;6.97;;
40252;SDS011;25972;51.854;4.534;2023-03-01T00:11:49;13.93;;;6.40;;
40252;SDS011;25972;51.854;4.534;2023-03-01T00:14:15;13.63;;;6.37;;
40252;SDS011;25972;51.854;4.534;2023-03-01T00:16:44;16.80;;;7.60;;
40252;SDS011;25972;51.854;4.534;2023-03-01T00:19:15;14.90;;;7.50;;
40252;SDS011;25972;51.854;4.534;2023-03-01T00:21:42;18.60;;;7.83;;
40252;SDS011;25972;51.854;4.534;2023-03-01T00:24:09;18.47;;;8.00;;
40252;SDS011;25972;51.854;4.534;2023-03-01T00:26:35;29.00;;;8.47;;
40252;SDS011;25972;51.854;4.534;2023-03-01T00:29:01;16.90;;;8.53;;
40252;SDS011;25972;51.854;4.534;2023-03-01T00:31:29;20.63;;;9.30;;
40252;SDS011;25972;51.854;4.534;2023-03-01T00:33:57;15.23;;;8.10;;
40252;SDS011;25972;51.854;4.534;2023-03-01T00:36:29;14.37;;;7.70;;
40252;SDS011;25972;51.854;4.534;2023-03-01T00:39:01;16.60;;;8.00;;
40252;SDS011;25972;51.854;4.534;2023-03-01T00:41:29;16.67;;;8.33;;
40252;SDS011;25972;51.854;4.534;2023-03-01T00:43:56;16.43;;;8.23;;
40252;SDS011;25972;51.854;4.534;2023-03-01T00:46:23;18.63;;;8.77;;
40252;SDS011;25972;51.854;4.534;2023-03-01T00:48:50;19.03;;;9.10;;
40252;SDS011;25972;51.854;4.534;2023-03-01T00:53:43;15.67;;;8.30;;
40252;SDS011;25972;51.854;4.534;2023-03-01T00:56:11;16.97;;;8.20;;
40252;SDS011;25972;51.854;4.534;2023-03-01T00:58:38;19.00;;;9.20;;
40252;SDS011;25972;51.854;4.534;2023-03-01T01:01:09;17.30;;;8.13;;
40252;SDS011;25972;51.854;4.534;2023-03-01T01:06:20;15.77;;;8.30;;
40252;SDS011;25972;51.854;4.534;2023-03-01T01:08:50;17.70;;;8.30;;
40252;SDS011;25972;51.854;4.534;2023-03-01T01:11:18;18.83;;;9.20;;
40252;SDS011;25972;51.854;4.534;2023-03-01T01:13:45;20.27;;;9.33;;
40252;SDS011;25972;51.854;4.534;2023-03-01T01:16:12;18.83;;;8.53;;
40252;SDS011;25972;51.854;4.534;2023-03-01T01:18:38;16.73;;;8.17;;
40252;SDS011;25972;51.854;4.534;2023-03-01T01:21:08;17.53;;;8.47;;
40252;SDS011;25972;51.854;4.534;2023-03-01T01:23:37;17.77;;;8.05;;
40252;SDS011;25972;51.854;4.534;2023-03-01T01:26:06;19.73;;;8.90;;
40252;SDS011;25972;51.854;4.534;2023-03-01T01:28:33;16.77;;;8.90;;
40252;SDS011;25972;51.854;4.534;2023-03-01T01:30:59;20.93;;;8.93;;
40252;SDS011;25972;51.854;4.534;2023-03-01T01:33:25;15.30;;;7.80;;
40252;SDS011;25972;51.854;4.534;2023-03-01T01:35:51;15.73;;;8.03;;
40252;SDS011;25972;51.854;4.534;2023-03-01T01:38:17;17.57;;;8.20;;
40252;SDS011;25972;51.854;4.534;2023-03-01T01:40:46;16.77;;;8.43;;
40252;SDS011;25972;51.854;4.534;2023-03-01T01:46:12;17.65;;;8.57;;
40252;SDS011;25972;51.854;4.534;2023-03-01T01:49:04;17.67;;;9.23;;
40252;SDS011;25972;51.854;4.534;2023-03-01T01:51:40;17.23;;;8.23;;
40252;SDS011;25972;51.854;4.534;2023-03-01T01:54:10;18.13;;;9.27;;
40252;SDS011;25972;51.854;4.534;2023-03-01T01:56:42;20.70;;;9.40;;
40252;SDS011;25972;51.854;4.534;2023-03-01T01:59:13;20.57;;;9.00;;
40252;SDS011;25972;51.854;4.534;2023-03-01T02:01:39;20.00;;;9.33;;
40252;SDS011;25972;51.854;4.534;2023-03-01T02:04:05;19.57;;;9.67;;
40252;SDS011;25972;51.854;4.534;2023-03-01T02:06:39;20.73;;;9.43;;
40252;SDS011;25972;51.854;4.534;2023-03-01T02:09:14;19.33;;;9.40;;
40252;SDS011;25972;51.854;4.534;2023-03-01T02:11:41;16.30;;;8.23;;
40252;SDS011;25972;51.854;4.534;2023-03-01T02:14:09;19.40;;;9.10;;
40252;SDS011;25972;51.854;4.534;2023-03-01T02:16:35;16.53;;;8.50;;
40252;SDS011;25972;51.854;4.534;2023-03-01T02:19:18;19.17;;;9.80;;
40252;SDS011;25972;51.854;4.534;2023-03-01T02:22:18;20.30;;;8.53;;
40252;SDS011;25972;51.854;4.534;2023-03-01T02:25:30;16.17;;;7.90;;
40252;SDS011;25972;51.854;4.534;2023-03-01T02:30:47;19.70;;;10.13;;
40252;SDS011;25972;51.854;4.534;2023-03-01T02:33:33;19.83;;;9.47;;
40252;SDS011;25972;51.854;4.534;2023-03-01T02:36:03;22.00;;;9.67;;
40252;SDS011;25972;51.854;4.534;2023-03-01T02:38:33;19.03;;;9.50;;
40252;SDS011;25972;51.854;4.534;2023-03-01T02:40:58;21.67;;;10.17;;
40252;SDS011;25972;51.854;4.534;2023-03-01T02:43:29;23.57;;;10.77;;
40252;SDS011;25972;51.854;4.534;2023-03-01T02:45:57;20.57;;;10.07;;
40252;SDS011;25972;51.854;4.534;2023-03-01T02:48:38;22.53;;;10.27;;
40252;SDS011;25972;51.854;4.534;2023-03-01T02:51:17;21.52;;;10.60;;
40252;SDS011;25972;51.854;4.534;2023-03-01T02:56:17;19.17;;;10.07;;
40252;SDS011;25972;51.854;4.534;2023-03-01T02:58:43;20.80;;;10.60;;
40252;SDS011;25972;51.854;4.534;2023-03-01T03:01:13;23.20;;;10.77;;
40252;SDS011;25972;51.854;4.534;2023-03-01T03:03:41;24.97;;;11.70;;
40252;SDS011;25972;51.854;4.534;2023-03-01T03:06:07;20.53;;;10.77;;
40252;SDS011;25972;51.854;4.534;2023-03-01T03:08:33;24.07;;;10.77;;
40252;SDS011;25972;51.854;4.534;2023-03-01T03:10:59;24.87;;;10.90;;
40252;SDS011;25972;51.854;4.534;2023-03-01T03:13:25;20.47;;;10.23;;
40252;SDS011;25972;51.854;4.534;2023-03-01T03:15:55;21.13;;;11.00;;
40252;SDS011;25972;51.854;4.534;2023-03-01T03:18:25;24.10;;;10.83;;
40252;SDS011;25972;51.854;4.534;2023-03-01T03:20:59;19.70;;;10.47;;
40252;SDS011;25972;51.854;4.534;2023-03-01T03:23:25;23.07;;;11.03;;
40252;SDS011;25972;51.854;4.534;2023-03-01T03:25:51;23.87;;;11.07;;
40252;SDS011;25972;51.854;4.534;2023-03-01T03:28:17;19.63;;;9.90;;
40252;SDS011;25972;51.854;4.534;2023-03-01T03:30:43;21.47;;;9.93;;
40252;SDS011;25972;51.854;4.534;2023-03-01T03:33:10;23.93;;;11.50;;
40252;SDS011;25972;51.854;4.534;2023-03-01T03:35:41;27.13;;;10.67;;
40252;SDS011;25972;51.854;4.534;2023-03-01T03:38:12;23.30;;;10.87;;
40252;SDS011;25972;51.854;4.534;2023-03-01T03:40:44;21.13;;;11.00;;
40252;SDS011;25972;51.854;4.534;2023-03-01T03:43:13;21.80;;;11.07;;
40252;SDS011;25972;51.854;4.534;2023-03-01T03:45:40;23.70;;;10.63;;
40252;SDS011;25972;51.854;4.534;2023-03-01T03:48:07;24.67;;;10.73;;
40252;SDS011;25972;51.854;4.534;2023-03-01T03:50:34;22.63;;;10.80;;
40252;SDS011;25972;51.854;4.534;2023-03-01T03:53:02;23.90;;;10.97;;
40252;SDS011;25972;51.854;4.534;2023-03-01T03:55:30;20.80;;;10.57;;
40252;SDS011;25972;51.854;4.534;2023-03-01T03:57:59;22.20;;;10.27;;
40252;SDS011;25972;51.854;4.534;2023-03-01T04:00:32;22.00;;;10.37;;
40252;SDS011;25972;51.854;4.534;2023-03-01T04:02:59;21.40;;;10.07;;
40252;SDS011;25972;51.854;4.534;2023-03-01T04:05:25;23.60;;;10.50;;
40252;SDS011;25972;51.854;4.534;2023-03-01T04:07:52;22.17;;;10.13;;
40252;SDS011;25972;51.854;4.534;2023-03-01T04:10:26;18.90;;;10.23;;
40252;SDS011;25972;51.854;4.534;2023-03-01T04:12:53;23.73;;;10.83;;
40252;SDS011;25972;51.854;4.534;2023-03-01T04:15:21;22.90;;;10.23;;
40252;SDS011;25972;51.854;4.534;2023-03-01T04:17:49;21.07;;;10.17;;
40252;SDS011;25972;51.854;4.534;2023-03-01T04:20:24;22.03;;;10.17;;
40252;SDS011;25972;51.854;4.534;2023-03-01T04:25:25;21.97;;;10.20;;
40252;SDS011;25972;51.854;4.534;2023-03-01T04:27:51;20.30;;;9.53;;
40252;SDS011;25972;51.854;4.534;2023-03-01T04:30:17;19.53;;;9.30;;
40252;SDS011;25972;51.854;4.534;2023-03-01T04:32:43;20.40;;;10.47;;
40252;SDS011;25972;51.854;4.534;2023-03-01T04:35:08;20.47;;;9.90;;
40252;SDS011;25972;51.854;4.534;2023-03-01T04:37:34;20.30;;;10.43;;
40252;SDS011;25972;51.854;4.534;2023-03-01T04:40:01;20.30;;;9.70;;
40252;SDS011;25972;51.854;4.534;2023-03-01T04:42:37;20.87;;;9.57;;
40252;SDS011;25972;51.854;4.534;2023-03-01T04:45:03;20.47;;;9.97;;
40252;SDS011;25972;51.854;4.534;2023-03-01T04:47:47;20.77;;;9.50;;
40252;SDS011;25972;51.854;4.534;2023-03-01T04:50:16;23.87;;;10.23;;
40252;SDS011;25972;51.854;4.534;2023-03-01T04:52:45;20.27;;;9.00;;
40252;SDS011;25972;51.854;4.534;2023-03-01T04:55:11;18.20;;;9.13;;
40252;SDS011;25972;51.854;4.534;2023-03-01T04:57:38;17.57;;;8.93;;
40252;SDS011;25972;51.854;4.534;2023-03-01T05:00:06;21.07;;;9.43;;
40252;SDS011;25972;51.854;4.534;2023-03-01T05:02:53;18.30;;;8.53;;
40252;SDS011;25972;51.854;4.534;2023-03-01T05:05:21;20.17;;;8.73;;
40252;SDS011;25972;51.854;4.534;2023-03-01T05:07:51;22.03;;;9.83;;
40252;SDS011;25972;51.854;4.534;2023-03-01T05:10:21;21.00;;;9.33;;
40252;SDS011;25972;51.854;4.534;2023-03-01T05:12:47;21.37;;;9.07;;
40252;SDS011;25972;51.854;4.534;2023-03-01T05:15:13;19.23;;;8.67;;
40252;SDS011;25972;51.854;4.534;2023-03-01T05:17:39;20.70;;;9.83;;
40252;SDS011;25972;51.854;4.534;2023-03-01T05:20:05;20.47;;;9.93;;
40252;SDS011;25972;51.854;4.534;2023-03-01T05:22:34;19.67;;;9.10;;
40252;SDS011;25972;51.854;4.534;2023-03-01T05:25:01;18.67;;;8.30;;
40252;SDS011;25972;51.854;4.534;2023-03-01T05:27:45;19.67;;;9.47;;
40252;SDS011;25972;51.854;4.534;2023-03-01T05:30:11;19.63;;;9.33;;
40252;SDS011;25972;51.854;4.534;2023-03-01T05:32:41;22.80;;;9.50;;
40252;SDS011;25972;51.854;4.534;2023-03-01T05:35:10;21.80;;;9.67;;
40252;SDS011;25972;51.854;4.534;2023-03-01T05:38:01;18.63;;;8.87;;
40252;SDS011;25972;51.854;4.534;2023-03-01T05:40:26;24.73;;;10.23;;
40252;SDS011;25972;51.854;4.534;2023-03-01T05:42:54;18.60;;;9.23;;
40252;SDS011;25972;51.854;4.534;2023-03-01T05:45:23;23.77;;;9.57;;
40252;SDS011;25972;51.854;4.534;2023-03-01T05:47:55;19.05;;;9.40;;
40252;SDS011;25972;51.854;4.534;2023-03-01T05:51:02;21.47;;;9.77;;
40252;SDS011;25972;51.854;4.534;2023-03-01T05:54:02;22.17;;;10.27;;
40252;SDS011;25972;51.854;4.534;2023-03-01T05:56:39;31.77;;;12.47;;
40252;SDS011;25972;51.854;4.534;2023-03-01T05:59:05;27.70;;;12.40;;
40252;SDS011;25972;51.854;4.534;2023-03-01T06:01:32;22.90;;;10.50;;
40252;SDS011;25972;51.854;4.534;2023-03-01T06:03:59;21.00;;;9.47;;
40252;SDS011;25972;51.854;4.534;2023-03-01T06:06:25;21.67;;;9.30;;
40252;SDS011;25972;51.854;4.534;2023-03-01T06:08:51;25.13;;;9.97;;
40252;SDS011;25972;51.854;4.534;2023-03-01T06:11:18;20.07;;;9.47;;
40252;SDS011;25972;51.854;4.534;2023-03-01T06:13:44;22.07;;;10.43;;
40252;SDS011;25972;51.854;4.534;2023-03-01T06:16:11;20.00;;;9.73;;
40252;SDS011;25972;51.854;4.534;2023-03-01T06:18:37;23.43;;;10.00;;
40252;SDS011;25972;51.854;4.534;2023-03-01T06:21:04;22.17;;;8.73;;
40252;SDS011;25972;51.854;4.534;2023-03-01T06:23:31;22.20;;;10.03;;
40252;SDS011;25972;51.854;4.534;2023-03-01T06:25:57;24.60;;;10.40;;
40252;SDS011;25972;51.854;4.534;2023-03-01T06:28:22;23.13;;;10.80;;
40252;SDS011;25972;51.854;4.534;2023-03-01T06:30:52;22.13;;;10.50;;
40252;SDS011;25972;51.854;4.534;2023-03-01T06:33:18;22.80;;;10.87;;
40252;SDS011;25972;51.854;4.534;2023-03-01T06:35:49;19.33;;;10.03;;
40252;SDS011;25972;51.854;4.534;2023-03-01T06:38:16;23.67;;;10.97;;
40252;SDS011;25972;51.854;4.534;2023-03-01T06:40:44;22.20;;;10.40;;
40252;SDS011;25972;51.854;4.534;2023-03-01T06:43:16;22.73;;;10.90;;
40252;SDS011;25972;51.854;4.534;2023-03-01T06:45:41;25.20;;;11.77;;
40252;SDS011;25972;51.854;4.534;2023-03-01T06:48:08;24.63;;;10.67;;
40252;SDS011;25972;51.854;4.534;2023-03-01T06:50:35;23.30;;;11.40;;
40252;SDS011;25972;51.854;4.534;2023-03-01T06:53:01;27.13;;;12.30;;
40252;SDS011;25972;51.854;4.534;2023-03-01T06:55:27;26.77;;;11.37;;
40252;SDS011;25972;51.854;4.534;2023-03-01T06:57:54;24.50;;;10.13;;
40252;SDS011;25972;51.854;4.534;2023-03-01T07:00:24;24.40;;;11.43;;
40252;SDS011;25972;51.854;4.534;2023-03-01T07:02:50;27.93;;;11.87;;
40252;SDS011;25972;51.854;4.534;2023-03-01T07:05:16;26.70;;;11.83;;
40252;SDS011;25972;51.854;4.534;2023-03-01T07:07:42;24.80;;;11.00;;
40252;SDS011;25972;51.854;4.534;2023-03-01T07:10:09;22.80;;;9.87;;
40252;SDS011;25972;51.854;4.534;2023-03-01T07:12:35;25.13;;;11.37;;
40252;SDS011;25972;51.854;4.534;2023-03-01T07:15:01;27.27;;;11.60;;
40252;SDS011;25972;51.854;4.534;2023-03-01T07:17:30;26.87;;;11.97;;
40252;SDS011;25972;51.854;4.534;2023-03-01T07:19:56;25.73;;;11.70;;
40252;SDS011;25972;51.854;4.534;2023-03-01T07:22:22;24.70;;;12.43;;
40252;SDS011;25972;51.854;4.534;2023-03-01T07:24:48;25.20;;;11.43;;
40252;SDS011;25972;51.854;4.534;2023-03-01T07:27:14;23.90;;;11.17;;
40252;SDS011;25972;51.854;4.534;2023-03-01T07:29:40;26.07;;;11.37;;
40252;SDS011;25972;51.854;4.534;2023-03-01T07:32:06;22.97;;;11.60;;
40252;SDS011;25972;51.854;4.534;2023-03-01T07:34:32;23.67;;;10.53;;
40252;SDS011;25972;51.854;4.534;2023-03-01T07:36:57;23.30;;;10.27;;
40252;SDS011;25972;51.854;4.534;2023-03-01T07:39:23;22.63;;;10.23;;
40252;SDS011;25972;51.854;4.534;2023-03-01T07:41:49;27.27;;;11.17;;
40252;SDS011;25972;51.854;4.534;2023-03-01T07:44:20;22.30;;;10.30;;
40252;SDS011;25972;51.854;4.534;2023-03-01T07:46:45;27.63;;;11.67;;
40252;SDS011;25972;51.854;4.534;2023-03-01T07:49:11;24.43;;;11.30;;
40252;SDS011;25972;51.854;4.534;2023-03-01T07:51:38;21.57;;;9.90;;
40252;SDS011;25972;51.854;4.534;2023-03-01T07:54:03;25.47;;;10.30;;
40252;SDS011;25972;51.854;4.534;2023-03-01T07:56:29;20.80;;;10.47;;
40252;SDS011;25972;51.854;4.534;2023-03-01T07:58:55;21.77;;;10.03;;
40252;SDS011;25972;51.854;4.534;2023-03-01T08:01:21;15.87;;;6.83;;
40252;SDS011;25972;51.854;4.534;2023-03-01T08:03:47;21.10;;;9.05;;
40252;SDS011;25972;51.854;4.534;2023-03-01T08:06:14;20.15;;;9.50;;
40252;SDS011;25972;51.854;4.534;2023-03-01T08:08:41;20.38;;;9.45;;
40252;SDS011;25972;51.854;4.534;2023-03-01T08:11:09;21.40;;;10.48;;
40252;SDS011;25972;51.854;4.534;2023-03-01T08:13:36;20.88;;;9.95;;
40252;SDS011;25972;51.854;4.534;2023-03-01T08:16:11;14.80;;;7.03;;
40252;SDS011;25972;51.854;4.534;2023-03-01T08:18:39;17.58;;;9.48;;
40252;SDS011;25972;51.854;4.534;2023-03-01T08:21:06;16.42;;;8.65;;
40252;SDS011;25972;51.854;4.534;2023-03-01T08:23:34;19.33;;;6.95;;
40252;SDS011;25972;51.854;4.534;2023-03-01T08:26:19;12.63;;;6.18;;
40252;SDS011;25972;51.854;4.534;2023-03-01T08:28:46;14.77;;;7.55;;
40252;SDS011;25972;51.854;4.534;2023-03-01T08:31:17;19.35;;;7.95;;
40252;SDS011;25972;51.854;4.534;2023-03-01T08:33:53;18.85;;;7.85;;
40252;SDS011;25972;51.854;4.534;2023-03-01T08:36:25;16.50;;;7.28;;
40252;SDS011;25972;51.854;4.534;2023-03-01T08:39:02;17.98;;;9.32;;
40252;SDS011;25972;51.854;4.534;2023-03-01T08:41:29;16.02;;;7.57;;
40252;SDS011;25972;51.854;4.534;2023-03-01T08:43:55;16.10;;;7.10;;
40252;SDS011;25972;51.854;4.534;2023-03-01T08:48:53;20.05;;;6.72;;
40252;SDS011;25972;51.854;4.534;2023-03-01T08:51:20;15.15;;;5.28;;
40252;SDS011;25972;51.854;4.534;2023-03-01T08:53:46;12.27;;;5.57;;
40252;SDS011;25972;51.854;4.534;2023-03-01T08:56:13;14.00;;;6.45;;
40252;SDS011;25972;51.854;4.534;2023-03-01T08:58:39;15.05;;;6.35;;
40252;SDS011;25972;51.854;4.534;2023-03-01T09:01:09;10.30;;;5.28;;
40252;SDS011;25972;51.854;4.534;2023-03-01T09:03:35;10.52;;;5.13;;
40252;SDS011;25972;51.854;4.534;2023-03-01T09:06:02;10.75;;;5.53;;
40252;SDS011;25972;51.854;4.534;2023-03-01T09:08:29;9.18;;;4.93;;
40252;SDS011;25972;51.854;4.534;2023-03-01T09:10:56;11.27;;;5.68;;
40252;SDS011;25972;51.854;4.534;2023-03-01T09:13:22;9.32;;;4.80;;
40252;SDS011;25972;51.854;4.534;2023-03-01T09:15:50;8.65;;;4.13;;
40252;SDS011;25972;51.854;4.534;2023-03-01T09:18:16;9.65;;;4.43;;
40252;SDS011;25972;51.854;4.534;2023-03-01T09:20:42;7.20;;;3.72;;
40252;SDS011;25972;51.854;4.534;2023-03-01T09:23:07;11.93;;;4.07;;
40252;SDS011;25972;51.854;4.534;2023-03-01T09:25:33;8.18;;;3.92;;
40252;SDS011;25972;51.854;4.534;2023-03-01T09:28:00;10.88;;;4.32;;
40252;SDS011;25972;51.854;4.534;2023-03-01T09:30:26;4.03;;;2.42;;
40252;SDS011;25972;51.854;4.534;2023-03-01T09:32:52;6.72;;;3.30;;
40252;SDS011;25972;51.854;4.534;2023-03-01T09:35:18;7.38;;;3.60;;
40252;SDS011;25972;51.854;4.534;2023-03-01T09:37:45;7.88;;;3.72;;
40252;SDS011;25972;51.854;4.534;2023-03-01T09:40:15;7.35;;;3.53;;
40252;SDS011;25972;51.854;4.534;2023-03-01T09:42:54;6.95;;;3.20;;
40252;SDS011;25972;51.854;4.534;2023-03-01T09:45:29;10.82;;;4.22;;
40252;SDS011;25972;51.854;4.534;2023-03-01T09:48:00;6.40;;;2.95;;
40252;SDS011;25972;51.854;4.534;2023-03-01T09:50:32;6.28;;;3.65;;
40252;SDS011;25972;51.854;4.534;2023-03-01T09:53:10;8.98;;;4.22;;
40252;SDS011;25972;51.854;4.534;2023-03-01T10:04:12;4.07;;;2.33;;
40252;SDS011;25972;51.854;4.534;2023-03-01T10:09:30;9.10;;;3.65;;
40252;SDS011;25972;51.854;4.534;2023-03-01T10:11:59;5.55;;;2.50;;
40252;SDS011;25972;51.854;4.534;2023-03-01T10:17:27;3.15;;;0.88;;
40252;SDS011;25972;51.854;4.534;2023-03-01T10:19:56;9.85;;;3.83;;
40252;SDS011;25972;51.854;4.534;2023-03-01T10:22:35;9.00;;;3.63;;
40252;SDS011;25972;51.854;4.534;2023-03-01T10:25:02;9.88;;;4.65;;
40252;SDS011;25972;51.854;4.534;2023-03-01T10:30:22;9.15;;;3.78;;
40252;SDS011;25972;51.854;4.534;2023-03-01T10:32:59;6.30;;;3.55;;
40252;SDS011;25972;51.854;4.534;2023-03-01T10:35:29;8.38;;;3.38;;
40252;SDS011;25972;51.854;4.534;2023-03-01T10:38:03;7.35;;;3.38;;
40252;SDS011;25972;51.854;4.534;2023-03-01T10:40:56;3.08;;;1.75;;
40252;SDS011;25972;51.854;4.534;2023-03-01T10:43:25;2.78;;;1.73;;
40252;SDS011;25972;51.854;4.534;2023-03-01T10:45:53;6.68;;;3.15;;
40252;SDS011;25972;51.854;4.534;2023-03-01T10:48:20;6.68;;;3.13;;
40252;SDS011;25972;51.854;4.534;2023-03-01T10:51:04;5.57;;;2.85;;
40252;SDS011;25972;51.854;4.534;2023-03-01T10:53:33;5.35;;;2.42;;
40252;SDS011;25972;51.854;4.534;2023-03-01T10:56:07;7.18;;;3.10;;
40252;SDS011;25972;51.854;4.534;2023-03-01T10:58:35;5.68;;;2.45;;
40252;SDS011;25972;51.854;4.534;2023-03-01T11:01:03;7.03;;;2.90;;
40252;SDS011;25972;51.854;4.534;2023-03-01T11:03:39;6.25;;;3.40;;
40252;SDS011;25972;51.854;4.534;2023-03-01T11:13:53;7.25;;;2.63;;
40252;SDS011;25972;51.854;4.534;2023-03-01T11:16:25;7.88;;;3.50;;
40252;SDS011;25972;51.854;4.534;2023-03-01T11:21:58;4.95;;;2.53;;
40252;SDS011;25972;51.854;4.534;2023-03-01T11:24:40;4.20;;;1.98;;
40252;SDS011;25972;51.854;4.534;2023-03-01T11:29:50;3.33;;;1.92;;
40252;SDS011;25972;51.854;4.534;2023-03-01T11:35:30;5.78;;;2.85;;
40252;SDS011;25972;51.854;4.534;2023-03-01T11:40:34;3.13;;;1.83;;
40252;SDS011;25972;51.854;4.534;2023-03-01T11:43:21;6.97;;;3.40;;
40252;SDS011;25972;51.854;4.534;2023-03-01T11:48:40;4.25;;;2.20;;
40252;SDS011;25972;51.854;4.534;2023-03-01T11:51:23;4.32;;;2.03;;
40252;SDS011;25972;51.854;4.534;2023-03-01T11:56:43;7.22;;;3.13;;
40252;SDS011;25972;51.854;4.534;2023-03-01T12:05:04;6.07;;;2.83;;
40252;SDS011;25972;51.854;4.534;2023-03-01T12:49:31;8.23;;;3.72;;
40252;SDS011;25972;51.854;4.534;2023-03-01T12:52:21;6.82;;;3.30;;
40252;SDS011;25972;51.854;4.534;2023-03-01T12:54:50;6.35;;;2.42;;
40252;SDS011;25972;51.854;4.534;2023-03-01T12:57:27;8.75;;;3.85;;
40252;SDS011;25972;51.854;4.534;2023-03-01T13:09:14;5.80;;;2.35;;
40252;SDS011;25972;51.854;4.534;2023-03-01T13:17:55;7.43;;;2.58;;
40252;SDS011;25972;51.854;4.534;2023-03-01T13:20:44;7.40;;;3.53;;
40252;SDS011;25972;51.854;4.534;2023-03-01T13:23:13;8.02;;;2.75;;
40252;SDS011;25972;51.854;4.534;2023-03-01T13:31:06;8.73;;;3.38;;
40252;SDS011;25972;51.854;4.534;2023-03-01T13:33:37;8.35;;;3.72;;
40252;SDS011;25972;51.854;4.534;2023-03-01T13:36:06;7.50;;;4.07;;
40252;SDS011;25972;51.854;4.534;2023-03-01T13:41:03;8.48;;;3.03;;
40252;SDS011;25972;51.854;4.534;2023-03-01T13:43:40;6.38;;;3.10;;
40252;SDS011;25972;51.854;4.534;2023-03-01T13:46:12;8.90;;;2.60;;
40252;SDS011;25972;51.854;4.534;2023-03-01T13:48:48;6.53;;;2.80;;
40252;SDS011;25972;51.854;4.534;2023-03-01T13:51:19;8.90;;;3.92;;
40252;SDS011;25972;51.854;4.534;2023-03-01T13:58:46;5.50;;;2.55;;
40252;SDS011;25972;51.854;4.534;2023-03-01T14:03:46;8.90;;;3.33;;
40252;SDS011;25972;51.854;4.534;2023-03-01T14:06:13;8.05;;;3.10;;
40252;SDS011;25972;51.854;4.534;2023-03-01T14:08:43;5.20;;;2.58;;
40252;SDS011;25972;51.854;4.534;2023-03-01T14:14:01;7.85;;;2.60;;
40252;SDS011;25972;51.854;4.534;2023-03-01T14:16:49;4.50;;;1.90;;
40252;SDS011;25972;51.854;4.534;2023-03-01T14:19:24;4.40;;;2.17;;
40252;SDS011;25972;51.854;4.534;2023-03-01T14:24:46;4.18;;;1.95;;
40252;SDS011;25972;51.854;4.534;2023-03-01T14:27:18;6.00;;;2.83;;
40252;SDS011;25972;51.854;4.534;2023-03-01T14:29:54;5.47;;;1.83;;
40252;SDS011;25972;51.854;4.534;2023-03-01T14:32:23;4.80;;;2.33;;
40252;SDS011;25972;51.854;4.534;2023-03-01T14:34:51;4.85;;;2.28;;
40252;SDS011;25972;51.854;4.534;2023-03-01T14:39:46;6.80;;;3.10;;
40252;SDS011;25972;51.854;4.534;2023-03-01T14:42:12;6.65;;;2.70;;
40252;SDS011;25972;51.854;4.534;2023-03-01T14:44:40;5.15;;;2.17;;
40252;SDS011;25972;51.854;4.534;2023-03-01T14:47:14;6.03;;;2.72;;
40252;SDS011;25972;51.854;4.534;2023-03-01T14:49:53;5.78;;;2.47;;
40252;SDS011;25972;51.854;4.534;2023-03-01T14:52:25;5.10;;;2.55;;
40252;SDS011;25972;51.854;4.534;2023-03-01T14:55:23;7.53;;;2.55;;
40252;SDS011;25972;51.854;4.534;2023-03-01T14:57:59;7.43;;;2.72;;
40252;SDS011;25972;51.854;4.534;2023-03-01T15:00:30;6.05;;;2.63;;
40252;SDS011;25972;51.854;4.534;2023-03-01T15:03:00;5.97;;;2.40;;
40252;SDS011;25972;51.854;4.534;2023-03-01T15:05:38;4.40;;;1.77;;
40252;SDS011;25972;51.854;4.534;2023-03-01T15:08:05;5.00;;;2.08;;
40252;SDS011;25972;51.854;4.534;2023-03-01T15:10:33;4.10;;;2.13;;
40252;SDS011;25972;51.854;4.534;2023-03-01T15:13:10;6.82;;;2.60;;
40252;SDS011;25972;51.854;4.534;2023-03-01T15:18:56;7.03;;;3.10;;
40252;SDS011;25972;51.854;4.534;2023-03-01T15:21:29;6.60;;;2.20;;
40252;SDS011;25972;51.854;4.534;2023-03-01T15:26:46;5.90;;;2.90;;
40252;SDS011;25972;51.854;4.534;2023-03-01T15:29:20;4.05;;;2.25;;
40252;SDS011;25972;51.854;4.534;2023-03-01T15:32:05;4.50;;;1.92;;
40252;SDS011;25972;51.854;4.534;2023-03-01T15:34:47;4.93;;;1.95;;
40252;SDS011;25972;51.854;4.534;2023-03-01T15:40:24;5.05;;;2.58;;
40252;SDS011;25972;51.854;4.534;2023-03-01T15:42:58;6.95;;;2.67;;
40252;SDS011;25972;51.854;4.534;2023-03-01T15:45:25;5.45;;;2.10;;
40252;SDS011;25972;51.854;4.534;2023-03-01T15:47:54;3.25;;;1.35;;
40252;SDS011;25972;51.854;4.534;2023-03-01T15:50:28;7.28;;;3.03;;
40252;SDS011;25972;51.854;4.534;2023-03-01T15:52:56;7.50;;;2.97;;
40252;SDS011;25972;51.854;4.534;2023-03-01T15:55:26;4.50;;;2.25;;
40252;SDS011;25972;51.854;4.534;2023-03-01T16:00:37;7.25;;;3.28;;
40252;SDS011;25972;51.854;4.534;2023-03-01T16:03:04;3.80;;;1.88;;
40252;SDS011;25972;51.854;4.534;2023-03-01T16:05:33;5.30;;;2.33;;
40252;SDS011;25972;51.854;4.534;2023-03-01T16:08:01;6.70;;;2.75;;
40252;SDS011;25972;51.854;4.534;2023-03-01T16:10:28;2.63;;;1.88;;
40252;SDS011;25972;51.854;4.534;2023-03-01T16:12:56;7.28;;;3.03;;
40252;SDS011;25972;51.854;4.534;2023-03-01T16:15:24;4.10;;;1.92;;
40252;SDS011;25972;51.854;4.534;2023-03-01T16:17:50;6.85;;;3.00;;
40252;SDS011;25972;51.854;4.534;2023-03-01T16:20:20;5.97;;;3.00;;
40252;SDS011;25972;51.854;4.534;2023-03-01T16:22:47;7.50;;;3.05;;
40252;SDS011;25972;51.854;4.534;2023-03-01T16:25:14;4.35;;;2.15;;
40252;SDS011;25972;51.854;4.534;2023-03-01T16:27:43;6.38;;;2.83;;
40252;SDS011;25972;51.854;4.534;2023-03-01T16:30:14;7.90;;;2.92;;
40252;SDS011;25972;51.854;4.534;2023-03-01T16:32:42;7.55;;;2.88;;
40252;SDS011;25972;51.854;4.534;2023-03-01T16:35:10;5.63;;;2.78;;
40252;SDS011;25972;51.854;4.534;2023-03-01T16:37:37;7.60;;;2.97;;
40252;SDS011;25972;51.854;4.534;2023-03-01T16:40:04;9.55;;;2.97;;
40252;SDS011;25972;51.854;4.534;2023-03-01T16:42:36;4.88;;;2.08;;
40252;SDS011;25972;51.854;4.534;2023-03-01T16:45:06;8.98;;;2.92;;
40252;SDS011;25972;51.854;4.534;2023-03-01T16:47:32;6.10;;;3.08;;
40252;SDS011;25972;51.854;4.534;2023-03-01T16:49:58;2.97;;;1.48;;
40252;SDS011;25972;51.854;4.534;2023-03-01T16:52:24;5.88;;;2.63;;
40252;SDS011;25972;51.854;4.534;2023-03-01T16:54:50;9.10;;;2.63;;
40252;SDS011;25972;51.854;4.534;2023-03-01T16:57:16;4.88;;;2.47;;
40252;SDS011;25972;51.854;4.534;2023-03-01T16:59:43;9.23;;;3.35;;
40252;SDS011;25972;51.854;4.534;2023-03-01T17:02:12;5.30;;;2.38;;
40252;SDS011;25972;51.854;4.534;2023-03-01T17:04:40;5.95;;;3.05;;
40252;SDS011;25972;51.854;4.534;2023-03-01T17:07:06;7.20;;;3.13;;
40252;SDS011;25972;51.854;4.534;2023-03-01T17:09:35;7.43;;;3.67;;
40252;SDS011;25972;51.854;4.534;2023-03-01T17:12:03;5.75;;;2.67;;
40252;SDS011;25972;51.854;4.534;2023-03-01T17:14:30;6.78;;;2.92;;
40252;SDS011;25972;51.854;4.534;2023-03-01T17:17:03;9.07;;;2.97;;
40252;SDS011;25972;51.854;4.534;2023-03-01T17:19:29;5.82;;;2.80;;
40252;SDS011;25972;51.854;4.534;2023-03-01T17:22:02;5.00;;;2.45;;
40252;SDS011;25972;51.854;4.534;2023-03-01T17:24:34;10.35;;;3.47;;
40252;SDS011;25972;51.854;4.534;2023-03-01T17:27:05;7.60;;;3.45;;
40252;SDS011;25972;51.854;4.534;2023-03-01T17:29:32;10.25;;;3.40;;
40252;SDS011;25972;51.854;4.534;2023-03-01T17:32:01;7.40;;;3.10;;